sensor_id;sensor_type;location;lat;lon;timestamp;P1;durP1;ratioP1;P2;durP2;ratioP2
61373;SDS011;47242;48.158;-1.586;2023-03-16T05:32:51;6.78;;;3.20;;
61373;SDS011;47242;48.158;-1.586;2023-03-16T05:35:18;5.10;;;3.25;;
61373;SDS011;47242;48.158;-1.586;2023-03-16T05:37:45;4.78;;;2.95;;
61373;SDS011;47242;48.158;-1.586;2023-03-16T05:40:11;5.97;;;3.47;;
61373;SDS011;47242;48.158;-1.586;2023-03-16T05:42:41;3.45;;;3.05;;
61373;SDS011;47242;48.158;-1.586;2023-03-16T05:45:08;6.15;;;3.38;;
61373;SDS011;47242;48.158;-1.586;2023-03-16T05:47:35;9.05;;;3.65;;
61373;SDS011;47242;48.158;-1.586;2023-03-16T05:50:02;6.40;;;3.60;;
61373;SDS011;47242;48.158;-1.586;2023-03-16T05:52:28;6.15;;;3.20;;
61373;SDS011;47242;48.158;-1.586;2023-03-16T05:54:54;5.40;;;3.85;;
61373;SDS011;47242;48.158;-1.586;2023-03-16T05:57:19;4.40;;;3.10;;
61373;SDS011;47242;48.158;-1.586;2023-03-16T05:59:45;4.63;;;3.63;;
61373;SDS011;47242;48.158;-1.586;2023-03-16T06:02:12;5.78;;;3.53;;
61373;SDS011;47242;48.158;-1.586;2023-03-16T06:04:38;7.05;;;3.58;;
61373;SDS011;47242;48.158;-1.586;2023-03-16T06:07:07;4.75;;;3.65;;
61373;SDS011;47242;48.158;-1.586;2023-03-16T06:09:37;8.38;;;3.85;;
61373;SDS011;47242;48.158;-1.586;2023-03-16T06:12:03;13.95;;;4.15;;
61373;SDS011;47242;48.158;-1.586;2023-03-16T06:14:28;11.00;;;3.85;;
61373;SDS011;47242;48.158;-1.586;2023-03-16T06:16:54;6.15;;;3.53;;
61373;SDS011;47242;48.158;-1.586;2023-03-16T06:19:20;6.78;;;3.22;;
61373;SDS011;47242;48.158;-1.586;2023-03-16T06:21:46;6.40;;;3.45;;
61373;SDS011;47242;48.158;-1.586;2023-03-16T06:24:11;4.72;;;3.47;;
61373;SDS011;47242;48.158;-1.586;2023-03-16T06:26:37;6.53;;;3.22;;
61373;SDS011;47242;48.158;-1.586;2023-03-16T06:29:03;8.25;;;3.75;;
61373;SDS011;47242;48.158;-1.586;2023-03-16T06:31:30;4.25;;;3.30;;
61373;SDS011;47242;48.158;-1.586;2023-03-16T06:33:57;4.05;;;2.83;;
61373;SDS011;47242;48.158;-1.586;2023-03-16T06:36:23;6.50;;;3.47;;
61373;SDS011;47242;48.158;-1.586;2023-03-16T06:38:49;4.43;;;2.95;;
61373;SDS011;47242;48.158;-1.586;2023-03-16T06:41:15;6.63;;;3.72;;
61373;SDS011;47242;48.158;-1.586;2023-03-16T06:43:41;6.70;;;3.35;;
61373;SDS011;47242;48.158;-1.586;2023-03-16T06:46:07;10.07;;;3.67;;
61373;SDS011;47242;48.158;-1.586;2023-03-16T06:48:33;4.32;;;3.08;;
61373;SDS011;47242;48.158;-1.586;2023-03-16T06:50:58;5.85;;;2.95;;
61373;SDS011;47242;48.158;-1.586;2023-03-16T06:53:25;7.18;;;3.40;;
61373;SDS011;47242;48.158;-1.586;2023-03-16T06:55:51;5.38;;;3.03;;
61373;SDS011;47242;48.158;-1.586;2023-03-16T06:58:17;6.93;;;3.17;;
61373;SDS011;47242;48.158;-1.586;2023-03-16T07:00:43;4.80;;;2.70;;
61373;SDS011;47242;48.158;-1.586;2023-03-16T07:03:08;2.90;;;2.60;;
61373;SDS011;47242;48.158;-1.586;2023-03-16T07:05:34;5.75;;;2.80;;
61373;SDS011;47242;48.158;-1.586;2023-03-16T07:08:00;4.45;;;2.90;;
61373;SDS011;47242;48.158;-1.586;2023-03-16T07:10:25;8.23;;;3.50;;
61373;SDS011;47242;48.158;-1.586;2023-03-16T07:12:52;6.20;;;3.38;;
61373;SDS011;47242;48.158;-1.586;2023-03-16T07:15:19;8.15;;;2.90;;
61373;SDS011;47242;48.158;-1.586;2023-03-16T07:17:45;4.20;;;2.17;;
61373;SDS011;47242;48.158;-1.586;2023-03-16T07:20:11;4.13;;;2.05;;
61373;SDS011;47242;48.158;-1.586;2023-03-16T07:22:38;3.10;;;2.25;;
61373;SDS011;47242;48.158;-1.586;2023-03-16T07:25:04;5.68;;;2.92;;
61373;SDS011;47242;48.158;-1.586;2023-03-16T07:27:31;5.03;;;2.92;;
61373;SDS011;47242;48.158;-1.586;2023-03-16T07:29:56;7.05;;;2.60;;
61373;SDS011;47242;48.158;-1.586;2023-03-16T07:32:24;5.30;;;2.97;;
61373;SDS011;47242;48.158;-1.586;2023-03-16T07:34:50;4.85;;;2.65;;
61373;SDS011;47242;48.158;-1.586;2023-03-16T07:37:16;4.90;;;2.63;;
61373;SDS011;47242;48.158;-1.586;2023-03-16T07:39:41;6.43;;;2.63;;
61373;SDS011;47242;48.158;-1.586;2023-03-16T07:42:07;5.78;;;2.58;;
61373;SDS011;47242;48.158;-1.586;2023-03-16T07:44:33;6.32;;;2.53;;
61373;SDS011;47242;48.158;-1.586;2023-03-16T07:46:59;3.95;;;2.38;;
61373;SDS011;47242;48.158;-1.586;2023-03-16T07:49:25;4.90;;;2.38;;
61373;SDS011;47242;48.158;-1.586;2023-03-16T07:51:51;4.93;;;2.20;;
61373;SDS011;47242;48.158;-1.586;2023-03-16T07:54:17;3.03;;;2.22;;
61373;SDS011;47242;48.158;-1.586;2023-03-16T07:56:43;5.53;;;2.25;;
61373;SDS011;47242;48.158;-1.586;2023-03-16T07:59:08;3.72;;;2.30;;
61373;SDS011;47242;48.158;-1.586;2023-03-16T08:01:34;5.15;;;2.60;;
61373;SDS011;47242;48.158;-1.586;2023-03-16T08:04:00;5.35;;;2.33;;
61373;SDS011;47242;48.158;-1.586;2023-03-16T08:06:26;6.50;;;2.65;;
61373;SDS011;47242;48.158;-1.586;2023-03-16T08:08:52;6.75;;;2.40;;
61373;SDS011;47242;48.158;-1.586;2023-03-16T08:11:18;3.95;;;1.92;;
61373;SDS011;47242;48.158;-1.586;2023-03-16T08:13:50;3.72;;;1.70;;
61373;SDS011;47242;48.158;-1.586;2023-03-16T08:16:21;2.75;;;1.92;;
61373;SDS011;47242;48.158;-1.586;2023-03-16T08:18:47;7.53;;;2.20;;
61373;SDS011;47242;48.158;-1.586;2023-03-16T08:21:14;3.75;;;2.15;;
61373;SDS011;47242;48.158;-1.586;2023-03-16T08:23:41;2.95;;;1.95;;
61373;SDS011;47242;48.158;-1.586;2023-03-16T08:26:16;4.55;;;1.92;;
61373;SDS011;47242;48.158;-1.586;2023-03-16T08:28:46;3.88;;;2.40;;
61373;SDS011;47242;48.158;-1.586;2023-03-16T08:31:16;4.45;;;2.15;;
61373;SDS011;47242;48.158;-1.586;2023-03-16T08:33:42;5.00;;;2.50;;
61373;SDS011;47242;48.158;-1.586;2023-03-16T08:36:11;2.90;;;2.15;;
61373;SDS011;47242;48.158;-1.586;2023-03-16T08:38:39;6.22;;;1.65;;
61373;SDS011;47242;48.158;-1.586;2023-03-16T08:41:06;5.53;;;1.95;;
61373;SDS011;47242;48.158;-1.586;2023-03-16T08:43:32;3.30;;;1.88;;
61373;SDS011;47242;48.158;-1.586;2023-03-16T08:45:58;4.93;;;1.95;;
61373;SDS011;47242;48.158;-1.586;2023-03-16T08:48:25;4.22;;;2.00;;
61373;SDS011;47242;48.158;-1.586;2023-03-16T08:50:52;3.40;;;1.75;;
61373;SDS011;47242;48.158;-1.586;2023-03-16T08:53:19;4.57;;;2.45;;
61373;SDS011;47242;48.158;-1.586;2023-03-16T08:55:45;3.30;;;1.13;;
61373;SDS011;47242;48.158;-1.586;2023-03-16T08:58:11;4.18;;;1.73;;
61373;SDS011;47242;48.158;-1.586;2023-03-16T09:00:39;3.70;;;1.80;;
61373;SDS011;47242;48.158;-1.586;2023-03-16T09:03:05;3.65;;;1.55;;
61373;SDS011;47242;48.158;-1.586;2023-03-16T09:05:31;4.07;;;1.90;;
61373;SDS011;47242;48.158;-1.586;2023-03-16T09:07:57;3.50;;;1.73;;
61373;SDS011;47242;48.158;-1.586;2023-03-16T09:10:24;3.08;;;1.75;;
61373;SDS011;47242;48.158;-1.586;2023-03-16T09:12:51;7.65;;;2.88;;
61373;SDS011;47242;48.158;-1.586;2023-03-16T09:15:17;2.42;;;1.65;;
61373;SDS011;47242;48.158;-1.586;2023-03-16T09:17:45;2.50;;;1.65;;
61373;SDS011;47242;48.158;-1.586;2023-03-16T09:20:12;3.33;;;1.98;;
61373;SDS011;47242;48.158;-1.586;2023-03-16T09:22:39;3.65;;;1.77;;
61373;SDS011;47242;48.158;-1.586;2023-03-16T09:25:06;2.53;;;1.80;;
61373;SDS011;47242;48.158;-1.586;2023-03-16T09:27:34;1.83;;;1.15;;
61373;SDS011;47242;48.158;-1.586;2023-03-16T09:30:01;2.60;;;1.10;;
61373;SDS011;47242;48.158;-1.586;2023-03-16T09:32:31;2.90;;;1.08;;
61373;SDS011;47242;48.158;-1.586;2023-03-16T09:34:57;3.03;;;1.20;;
61373;SDS011;47242;48.158;-1.586;2023-03-16T09:37:23;1.63;;;0.88;;
61373;SDS011;47242;48.158;-1.586;2023-03-16T09:39:50;4.90;;;1.42;;
61373;SDS011;47242;48.158;-1.586;2023-03-16T09:44:55;2.90;;;1.02;;
61373;SDS011;47242;48.158;-1.586;2023-03-16T09:47:33;2.13;;;1.20;;
61373;SDS011;47242;48.158;-1.586;2023-03-16T09:50:02;3.05;;;1.38;;
61373;SDS011;47242;48.158;-1.586;2023-03-16T09:52:36;3.30;;;1.20;;
61373;SDS011;47242;48.158;-1.586;2023-03-16T09:55:26;3.25;;;1.20;;
61373;SDS011;47242;48.158;-1.586;2023-03-16T09:57:53;1.25;;;0.68;;
61373;SDS011;47242;48.158;-1.586;2023-03-16T10:00:21;3.55;;;1.20;;
61373;SDS011;47242;48.158;-1.586;2023-03-16T10:05:32;2.47;;;1.13;;
61373;SDS011;47242;48.158;-1.586;2023-03-16T10:08:13;3.58;;;1.23;;
61373;SDS011;47242;48.158;-1.586;2023-03-16T10:16:57;2.78;;;1.00;;
61373;SDS011;47242;48.158;-1.586;2023-03-16T10:19:40;4.40;;;1.20;;
61373;SDS011;47242;48.158;-1.586;2023-03-16T10:22:26;3.95;;;1.63;;
61373;SDS011;47242;48.158;-1.586;2023-03-16T10:27:43;1.88;;;1.10;;
61373;SDS011;47242;48.158;-1.586;2023-03-16T10:30:15;4.07;;;1.35;;
61373;SDS011;47242;48.158;-1.586;2023-03-16T10:32:46;3.28;;;1.10;;
61373;SDS011;47242;48.158;-1.586;2023-03-16T10:37:53;3.30;;;1.17;;
61373;SDS011;47242;48.158;-1.586;2023-03-16T10:40:18;3.33;;;1.20;;
61373;SDS011;47242;48.158;-1.586;2023-03-16T10:42:45;2.92;;;1.10;;
61373;SDS011;47242;48.158;-1.586;2023-03-16T10:45:18;1.35;;;1.15;;
61373;SDS011;47242;48.158;-1.586;2023-03-16T10:47:51;3.70;;;1.13;;
61373;SDS011;47242;48.158;-1.586;2023-03-16T10:50:21;4.43;;;1.20;;
61373;SDS011;47242;48.158;-1.586;2023-03-16T10:52:49;2.47;;;1.13;;
61373;SDS011;47242;48.158;-1.586;2023-03-16T10:55:25;3.28;;;1.10;;
61373;SDS011;47242;48.158;-1.586;2023-03-16T10:57:54;3.50;;;1.13;;
61373;SDS011;47242;48.158;-1.586;2023-03-16T11:02:51;2.67;;;1.35;;
61373;SDS011;47242;48.158;-1.586;2023-03-16T11:07:59;3.78;;;1.30;;
61373;SDS011;47242;48.158;-1.586;2023-03-16T11:10:34;2.22;;;1.13;;
61373;SDS011;47242;48.158;-1.586;2023-03-16T11:13:12;2.28;;;1.33;;
61373;SDS011;47242;48.158;-1.586;2023-03-16T11:19:47;1.75;;;1.00;;
61373;SDS011;47242;48.158;-1.586;2023-03-16T11:22:01;3.63;;;1.77;;
61373;SDS011;47242;48.158;-1.586;2023-03-16T11:30:04;2.47;;;1.00;;
61373;SDS011;47242;48.158;-1.586;2023-03-16T11:32:37;3.97;;;1.40;;
61373;SDS011;47242;48.158;-1.586;2023-03-16T11:35:11;6.70;;;1.20;;
61373;SDS011;47242;48.158;-1.586;2023-03-16T11:37:52;3.53;;;1.20;;
61373;SDS011;47242;48.158;-1.586;2023-03-16T11:51:34;2.47;;;0.90;;
61373;SDS011;47242;48.158;-1.586;2023-03-16T12:05:21;4.40;;;1.17;;
61373;SDS011;47242;48.158;-1.586;2023-03-16T12:08:00;2.38;;;1.05;;
61373;SDS011;47242;48.158;-1.586;2023-03-16T12:13:21;3.72;;;1.08;;
61373;SDS011;47242;48.158;-1.586;2023-03-16T12:15:58;1.30;;;0.80;;
61373;SDS011;47242;48.158;-1.586;2023-03-16T12:18:51;2.33;;;0.93;;
61373;SDS011;47242;48.158;-1.586;2023-03-16T12:21:20;4.78;;;1.10;;
61373;SDS011;47242;48.158;-1.586;2023-03-16T12:23:56;3.17;;;1.05;;
61373;SDS011;47242;48.158;-1.586;2023-03-16T12:26:35;4.15;;;1.08;;
61373;SDS011;47242;48.158;-1.586;2023-03-16T12:29:15;2.92;;;1.00;;
61373;SDS011;47242;48.158;-1.586;2023-03-16T12:34:52;5.35;;;1.45;;
61373;SDS011;47242;48.158;-1.586;2023-03-16T12:37:47;2.70;;;1.20;;
61373;SDS011;47242;48.158;-1.586;2023-03-16T12:46:06;5.03;;;1.35;;
61373;SDS011;47242;48.158;-1.586;2023-03-16T12:48:45;1.90;;;1.20;;
61373;SDS011;47242;48.158;-1.586;2023-03-16T12:51:13;2.40;;;1.00;;
61373;SDS011;47242;48.158;-1.586;2023-03-16T12:53:53;4.03;;;1.10;;
61373;SDS011;47242;48.158;-1.586;2023-03-16T12:56:25;2.30;;;0.77;;
61373;SDS011;47242;48.158;-1.586;2023-03-16T12:59:07;4.05;;;1.10;;
61373;SDS011;47242;48.158;-1.586;2023-03-16T13:01:42;1.17;;;0.75;;
61373;SDS011;47242;48.158;-1.586;2023-03-16T13:04:11;2.05;;;0.98;;
61373;SDS011;47242;48.158;-1.586;2023-03-16T13:06:44;3.58;;;1.00;;
61373;SDS011;47242;48.158;-1.586;2023-03-16T13:09:16;1.92;;;0.80;;
61373;SDS011;47242;48.158;-1.586;2023-03-16T13:11:49;3.30;;;1.25;;
61373;SDS011;47242;48.158;-1.586;2023-03-16T13:19:44;3.50;;;0.98;;
61373;SDS011;47242;48.158;-1.586;2023-03-16T13:22:26;3.53;;;1.08;;
61373;SDS011;47242;48.158;-1.586;2023-03-16T13:24:54;1.88;;;0.70;;
61373;SDS011;47242;48.158;-1.586;2023-03-16T13:27:27;1.80;;;0.88;;
61373;SDS011;47242;48.158;-1.586;2023-03-16T13:30:01;1.20;;;0.75;;
61373;SDS011;47242;48.158;-1.586;2023-03-16T13:32:44;3.28;;;1.13;;
61373;SDS011;47242;48.158;-1.586;2023-03-16T13:35:15;3.58;;;1.48;;
61373;SDS011;47242;48.158;-1.586;2023-03-16T13:37:43;4.75;;;1.00;;
61373;SDS011;47242;48.158;-1.586;2023-03-16T13:40:19;2.95;;;1.20;;
61373;SDS011;47242;48.158;-1.586;2023-03-16T13:42:49;3.72;;;1.35;;
61373;SDS011;47242;48.158;-1.586;2023-03-16T13:45:26;1.85;;;0.80;;
61373;SDS011;47242;48.158;-1.586;2023-03-16T13:47:57;2.42;;;1.00;;
61373;SDS011;47242;48.158;-1.586;2023-03-16T13:50:24;3.53;;;0.93;;
61373;SDS011;47242;48.158;-1.586;2023-03-16T13:52:57;1.42;;;0.80;;
61373;SDS011;47242;48.158;-1.586;2023-03-16T13:55:31;5.78;;;1.77;;
61373;SDS011;47242;48.158;-1.586;2023-03-16T13:58:01;3.42;;;1.20;;
61373;SDS011;47242;48.158;-1.586;2023-03-16T14:00:29;3.60;;;1.00;;
61373;SDS011;47242;48.158;-1.586;2023-03-16T14:02:59;3.13;;;0.90;;
61373;SDS011;47242;48.158;-1.586;2023-03-16T14:05:33;3.67;;;1.00;;
61373;SDS011;47242;48.158;-1.586;2023-03-16T14:08:00;5.47;;;1.27;;
61373;SDS011;47242;48.158;-1.586;2023-03-16T14:10:28;4.82;;;1.63;;
61373;SDS011;47242;48.158;-1.586;2023-03-16T14:13:04;1.60;;;0.85;;
61373;SDS011;47242;48.158;-1.586;2023-03-16T14:15:32;6.82;;;1.50;;
61373;SDS011;47242;48.158;-1.586;2023-03-16T14:18:16;2.58;;;1.05;;
61373;SDS011;47242;48.158;-1.586;2023-03-16T14:20:54;3.58;;;1.15;;
61373;SDS011;47242;48.158;-1.586;2023-03-16T14:23:24;1.27;;;0.75;;
61373;SDS011;47242;48.158;-1.586;2023-03-16T14:25:55;2.28;;;1.27;;
61373;SDS011;47242;48.158;-1.586;2023-03-16T14:28:26;5.78;;;1.23;;
61373;SDS011;47242;48.158;-1.586;2023-03-16T14:31:00;5.05;;;1.80;;
61373;SDS011;47242;48.158;-1.586;2023-03-16T14:33:34;7.63;;;1.38;;
61373;SDS011;47242;48.158;-1.586;2023-03-16T14:36:15;4.18;;;1.38;;
61373;SDS011;47242;48.158;-1.586;2023-03-16T14:38:43;5.57;;;2.10;;
61373;SDS011;47242;48.158;-1.586;2023-03-16T14:43:53;5.95;;;1.85;;
61373;SDS011;47242;48.158;-1.586;2023-03-16T14:46:37;2.58;;;1.50;;
61373;SDS011;47242;48.158;-1.586;2023-03-16T14:49:13;4.32;;;1.75;;
61373;SDS011;47242;48.158;-1.586;2023-03-16T14:51:52;2.42;;;1.30;;
61373;SDS011;47242;48.158;-1.586;2023-03-16T14:54:22;4.85;;;1.50;;
61373;SDS011;47242;48.158;-1.586;2023-03-16T14:56:51;2.90;;;1.50;;
61373;SDS011;47242;48.158;-1.586;2023-03-16T14:59:19;5.25;;;1.23;;
61373;SDS011;47242;48.158;-1.586;2023-03-16T15:01:46;3.88;;;1.60;;
61373;SDS011;47242;48.158;-1.586;2023-03-16T15:04:14;3.20;;;1.40;;
61373;SDS011;47242;48.158;-1.586;2023-03-16T15:06:43;3.45;;;1.30;;
61373;SDS011;47242;48.158;-1.586;2023-03-16T15:09:42;2.75;;;1.30;;
61373;SDS011;47242;48.158;-1.586;2023-03-16T15:12:14;1.60;;;0.90;;
61373;SDS011;47242;48.158;-1.586;2023-03-16T15:14:42;3.55;;;1.52;;
61373;SDS011;47242;48.158;-1.586;2023-03-16T15:17:26;2.70;;;0.80;;
61373;SDS011;47242;48.158;-1.586;2023-03-16T15:19:52;3.17;;;1.20;;
61373;SDS011;47242;48.158;-1.586;2023-03-16T15:22:21;6.55;;;1.20;;
61373;SDS011;47242;48.158;-1.586;2023-03-16T15:24:51;4.18;;;1.15;;
61373;SDS011;47242;48.158;-1.586;2023-03-16T15:27:24;4.25;;;0.85;;
61373;SDS011;47242;48.158;-1.586;2023-03-16T15:29:55;5.32;;;1.35;;
61373;SDS011;47242;48.158;-1.586;2023-03-16T15:32:21;2.30;;;0.90;;
61373;SDS011;47242;48.158;-1.586;2023-03-16T15:34:47;1.95;;;0.90;;
61373;SDS011;47242;48.158;-1.586;2023-03-16T15:37:16;2.97;;;0.90;;
61373;SDS011;47242;48.158;-1.586;2023-03-16T15:39:44;4.07;;;1.20;;
61373;SDS011;47242;48.158;-1.586;2023-03-16T15:42:14;3.38;;;1.30;;
61373;SDS011;47242;48.158;-1.586;2023-03-16T15:44:42;3.50;;;0.90;;
61373;SDS011;47242;48.158;-1.586;2023-03-16T15:47:09;1.95;;;0.93;;
61373;SDS011;47242;48.158;-1.586;2023-03-16T15:49:35;2.40;;;1.00;;
61373;SDS011;47242;48.158;-1.586;2023-03-16T15:52:02;1.90;;;0.80;;
61373;SDS011;47242;48.158;-1.586;2023-03-16T15:54:34;2.17;;;1.25;;
61373;SDS011;47242;48.158;-1.586;2023-03-16T15:57:00;1.98;;;0.88;;
61373;SDS011;47242;48.158;-1.586;2023-03-16T15:59:27;2.92;;;0.95;;
61373;SDS011;47242;48.158;-1.586;2023-03-16T16:01:58;2.45;;;0.90;;
61373;SDS011;47242;48.158;-1.586;2023-03-16T16:04:24;1.75;;;0.82;;
61373;SDS011;47242;48.158;-1.586;2023-03-16T16:06:50;1.52;;;0.77;;
61373;SDS011;47242;48.158;-1.586;2023-03-16T16:09:21;2.42;;;0.88;;
61373;SDS011;47242;48.158;-1.586;2023-03-16T16:11:46;3.10;;;1.13;;
61373;SDS011;47242;48.158;-1.586;2023-03-16T16:14:14;3.45;;;1.10;;
61373;SDS011;47242;48.158;-1.586;2023-03-16T16:16:42;3.90;;;1.02;;
61373;SDS011;47242;48.158;-1.586;2023-03-16T16:19:13;5.53;;;0.82;;
61373;SDS011;47242;48.158;-1.586;2023-03-16T16:21:39;3.40;;;1.27;;
61373;SDS011;47242;48.158;-1.586;2023-03-16T16:24:06;2.45;;;1.23;;
61373;SDS011;47242;48.158;-1.586;2023-03-16T16:26:34;4.85;;;0.93;;
61373;SDS011;47242;48.158;-1.586;2023-03-16T16:29:05;4.93;;;1.50;;
61373;SDS011;47242;48.158;-1.586;2023-03-16T16:31:40;4.78;;;2.10;;
61373;SDS011;47242;48.158;-1.586;2023-03-16T16:34:12;4.05;;;1.65;;
61373;SDS011;47242;48.158;-1.586;2023-03-16T16:36:40;6.15;;;2.08;;
61373;SDS011;47242;48.158;-1.586;2023-03-16T16:39:05;4.45;;;1.90;;
61373;SDS011;47242;48.158;-1.586;2023-03-16T16:41:32;4.43;;;1.50;;
61373;SDS011;47242;48.158;-1.586;2023-03-16T16:44:00;3.55;;;1.23;;
61373;SDS011;47242;48.158;-1.586;2023-03-16T16:46:32;6.35;;;1.75;;
61373;SDS011;47242;48.158;-1.586;2023-03-16T16:49:14;3.38;;;1.60;;
61373;SDS011;47242;48.158;-1.586;2023-03-16T16:51:40;4.18;;;2.20;;
61373;SDS011;47242;48.158;-1.586;2023-03-16T16:54:13;3.13;;;1.35;;
61373;SDS011;47242;48.158;-1.586;2023-03-16T16:56:51;5.70;;;1.63;;
61373;SDS011;47242;48.158;-1.586;2023-03-16T16:59:19;4.90;;;1.85;;
61373;SDS011;47242;48.158;-1.586;2023-03-16T17:01:47;4.50;;;2.08;;
61373;SDS011;47242;48.158;-1.586;2023-03-16T17:04:19;2.95;;;1.70;;
61373;SDS011;47242;48.158;-1.586;2023-03-16T17:06:47;6.60;;;2.80;;
61373;SDS011;47242;48.158;-1.586;2023-03-16T17:09:16;8.13;;;2.75;;
61373;SDS011;47242;48.158;-1.586;2023-03-16T17:11:42;7.65;;;2.55;;
61373;SDS011;47242;48.158;-1.586;2023-03-16T17:14:10;6.13;;;2.63;;
61373;SDS011;47242;48.158;-1.586;2023-03-16T17:16:40;7.38;;;3.33;;
61373;SDS011;47242;48.158;-1.586;2023-03-16T17:19:17;7.22;;;2.60;;
61373;SDS011;47242;48.158;-1.586;2023-03-16T17:21:45;5.93;;;2.47;;
61373;SDS011;47242;48.158;-1.586;2023-03-16T17:24:10;5.15;;;1.70;;
61373;SDS011;47242;48.158;-1.586;2023-03-16T17:26:38;3.95;;;1.65;;
61373;SDS011;47242;48.158;-1.586;2023-03-16T17:29:27;5.85;;;2.20;;
61373;SDS011;47242;48.158;-1.586;2023-03-16T17:32:01;3.80;;;1.60;;
61373;SDS011;47242;48.158;-1.586;2023-03-16T17:34:32;4.20;;;1.35;;
61373;SDS011;47242;48.158;-1.586;2023-03-16T17:36:58;3.40;;;1.30;;
61373;SDS011;47242;48.158;-1.586;2023-03-16T17:39:29;5.70;;;1.75;;
61373;SDS011;47242;48.158;-1.586;2023-03-16T17:44:29;2.22;;;1.35;;
61373;SDS011;47242;48.158;-1.586;2023-03-16T17:47:02;4.25;;;1.70;;
61373;SDS011;47242;48.158;-1.586;2023-03-16T17:49:28;7.18;;;1.50;;
61373;SDS011;47242;48.158;-1.586;2023-03-16T17:51:55;10.98;;;2.00;;
61373;SDS011;47242;48.158;-1.586;2023-03-16T17:54:21;4.03;;;1.35;;
61373;SDS011;47242;48.158;-1.586;2023-03-16T17:56:48;3.33;;;1.50;;
61373;SDS011;47242;48.158;-1.586;2023-03-16T17:59:16;2.88;;;1.65;;
61373;SDS011;47242;48.158;-1.586;2023-03-16T18:01:45;5.82;;;1.65;;
61373;SDS011;47242;48.158;-1.586;2023-03-16T18:04:19;7.28;;;1.58;;
61373;SDS011;47242;48.158;-1.586;2023-03-16T18:06:47;5.85;;;2.10;;
61373;SDS011;47242;48.158;-1.586;2023-03-16T18:09:15;7.47;;;2.17;;
61373;SDS011;47242;48.158;-1.586;2023-03-16T18:11:42;8.15;;;1.85;;
61373;SDS011;47242;48.158;-1.586;2023-03-16T18:14:30;4.97;;;2.28;;
61373;SDS011;47242;48.158;-1.586;2023-03-16T18:17:02;4.63;;;1.70;;
61373;SDS011;47242;48.158;-1.586;2023-03-16T18:19:41;6.97;;;2.33;;
61373;SDS011;47242;48.158;-1.586;2023-03-16T18:22:11;4.70;;;2.10;;
61373;SDS011;47242;48.158;-1.586;2023-03-16T18:24:43;7.63;;;3.88;;
61373;SDS011;47242;48.158;-1.586;2023-03-16T18:27:10;7.95;;;3.10;;
61373;SDS011;47242;48.158;-1.586;2023-03-16T18:29:36;4.43;;;2.47;;
61373;SDS011;47242;48.158;-1.586;2023-03-16T18:32:02;9.30;;;3.35;;
61373;SDS011;47242;48.158;-1.586;2023-03-16T18:34:29;4.55;;;2.45;;
61373;SDS011;47242;48.158;-1.586;2023-03-16T18:36:58;8.43;;;2.50;;
61373;SDS011;47242;48.158;-1.586;2023-03-16T18:39:30;6.85;;;2.25;;
61373;SDS011;47242;48.158;-1.586;2023-03-16T18:41:56;4.82;;;2.20;;
61373;SDS011;47242;48.158;-1.586;2023-03-16T18:44:23;4.97;;;2.10;;
61373;SDS011;47242;48.158;-1.586;2023-03-16T18:46:50;5.70;;;1.77;;
61373;SDS011;47242;48.158;-1.586;2023-03-16T18:49:26;6.03;;;2.13;;
61373;SDS011;47242;48.158;-1.586;2023-03-16T18:51:57;4.30;;;2.08;;
61373;SDS011;47242;48.158;-1.586;2023-03-16T18:54:25;6.88;;;2.40;;
61373;SDS011;47242;48.158;-1.586;2023-03-16T18:56:54;5.35;;;2.88;;
61373;SDS011;47242;48.158;-1.586;2023-03-16T18:59:22;16.23;;;7.53;;
61373;SDS011;47242;48.158;-1.586;2023-03-16T19:01:48;17.60;;;7.55;;
61373;SDS011;47242;48.158;-1.586;2023-03-16T19:04:18;16.73;;;7.13;;
61373;SDS011;47242;48.158;-1.586;2023-03-16T19:06:50;10.05;;;3.50;;
61373;SDS011;47242;48.158;-1.586;2023-03-16T19:09:22;7.00;;;2.67;;
61373;SDS011;47242;48.158;-1.586;2023-03-16T19:11:56;8.63;;;2.65;;
61373;SDS011;47242;48.158;-1.586;2023-03-16T19:14:40;5.45;;;2.20;;
61373;SDS011;47242;48.158;-1.586;2023-03-16T19:17:06;5.53;;;3.35;;
61373;SDS011;47242;48.158;-1.586;2023-03-16T19:19:32;12.18;;;4.30;;
61373;SDS011;47242;48.158;-1.586;2023-03-16T19:22:05;14.35;;;4.45;;
61373;SDS011;47242;48.158;-1.586;2023-03-16T19:29:46;15.63;;;6.85;;
61373;SDS011;47242;48.158;-1.586;2023-03-16T19:32:18;9.60;;;5.00;;
61373;SDS011;47242;48.158;-1.586;2023-03-16T19:34:45;6.75;;;3.35;;
61373;SDS011;47242;48.158;-1.586;2023-03-16T19:37:11;7.90;;;3.40;;
61373;SDS011;47242;48.158;-1.586;2023-03-16T19:39:43;14.70;;;5.82;;
61373;SDS011;47242;48.158;-1.586;2023-03-16T19:42:19;12.77;;;4.60;;
61373;SDS011;47242;48.158;-1.586;2023-03-16T19:44:49;13.65;;;4.30;;
61373;SDS011;47242;48.158;-1.586;2023-03-16T19:49:58;9.88;;;3.35;;
61373;SDS011;47242;48.158;-1.586;2023-03-16T19:52:25;7.88;;;2.75;;
61373;SDS011;47242;48.158;-1.586;2023-03-16T19:54:53;8.57;;;3.72;;
61373;SDS011;47242;48.158;-1.586;2023-03-16T19:57:18;11.98;;;4.20;;
61373;SDS011;47242;48.158;-1.586;2023-03-16T19:59:46;10.75;;;4.15;;
61373;SDS011;47242;48.158;-1.586;2023-03-16T20:02:20;10.20;;;3.40;;
61373;SDS011;47242;48.158;-1.586;2023-03-16T20:04:51;4.22;;;2.88;;
61373;SDS011;47242;48.158;-1.586;2023-03-16T20:07:18;8.32;;;3.13;;
61373;SDS011;47242;48.158;-1.586;2023-03-16T20:09:45;8.23;;;3.10;;
61373;SDS011;47242;48.158;-1.586;2023-03-16T20:12:21;6.57;;;3.50;;
61373;SDS011;47242;48.158;-1.586;2023-03-16T20:14:50;7.95;;;3.22;;
61373;SDS011;47242;48.158;-1.586;2023-03-16T20:17:20;7.85;;;3.90;;
61373;SDS011;47242;48.158;-1.586;2023-03-16T20:19:47;9.88;;;3.30;;
61373;SDS011;47242;48.158;-1.586;2023-03-16T20:22:15;10.07;;;3.80;;
61373;SDS011;47242;48.158;-1.586;2023-03-16T20:24:45;8.90;;;3.95;;
61373;SDS011;47242;48.158;-1.586;2023-03-16T20:27:13;9.77;;;4.05;;
61373;SDS011;47242;48.158;-1.586;2023-03-16T20:29:40;11.90;;;4.65;;
61373;SDS011;47242;48.158;-1.586;2023-03-16T20:32:11;11.18;;;4.72;;
61373;SDS011;47242;48.158;-1.586;2023-03-16T20:34:51;7.38;;;4.22;;
61373;SDS011;47242;48.158;-1.586;2023-03-16T20:37:21;13.27;;;4.38;;
61373;SDS011;47242;48.158;-1.586;2023-03-16T20:39:49;9.88;;;4.32;;
61373;SDS011;47242;48.158;-1.586;2023-03-16T20:42:23;17.27;;;5.43;;
61373;SDS011;47242;48.158;-1.586;2023-03-16T20:44:52;10.05;;;5.05;;
61373;SDS011;47242;48.158;-1.586;2023-03-16T20:47:19;11.07;;;4.88;;
61373;SDS011;47242;48.158;-1.586;2023-03-16T20:49:47;10.13;;;4.00;;
61373;SDS011;47242;48.158;-1.586;2023-03-16T20:52:18;10.15;;;4.35;;
61373;SDS011;47242;48.158;-1.586;2023-03-16T20:54:46;14.27;;;4.47;;
61373;SDS011;47242;48.158;-1.586;2023-03-16T20:57:20;12.90;;;4.18;;
61373;SDS011;47242;48.158;-1.586;2023-03-16T20:59:48;7.40;;;3.85;;
61373;SDS011;47242;48.158;-1.586;2023-03-16T21:02:28;9.85;;;4.28;;
61373;SDS011;47242;48.158;-1.586;2023-03-16T21:04:58;6.97;;;2.83;;
61373;SDS011;47242;48.158;-1.586;2023-03-16T21:07:25;13.85;;;3.78;;
61373;SDS011;47242;48.158;-1.586;2023-03-16T21:09:51;8.60;;;3.60;;
61373;SDS011;47242;48.158;-1.586;2023-03-16T21:12:21;6.57;;;3.70;;
61373;SDS011;47242;48.158;-1.586;2023-03-16T21:14:52;8.45;;;3.72;;
61373;SDS011;47242;48.158;-1.586;2023-03-16T21:17:20;14.10;;;4.40;;
61373;SDS011;47242;48.158;-1.586;2023-03-16T21:19:48;9.20;;;3.47;;
61373;SDS011;47242;48.158;-1.586;2023-03-16T21:22:20;7.63;;;3.47;;
61373;SDS011;47242;48.158;-1.586;2023-03-16T21:24:59;7.97;;;3.67;;
61373;SDS011;47242;48.158;-1.586;2023-03-16T21:27:32;8.57;;;3.42;;
61373;SDS011;47242;48.158;-1.586;2023-03-16T21:29:59;10.52;;;3.58;;
61373;SDS011;47242;48.158;-1.586;2023-03-16T21:32:31;7.22;;;4.55;;
61373;SDS011;47242;48.158;-1.586;2023-03-16T21:34:57;9.25;;;4.18;;
61373;SDS011;47242;48.158;-1.586;2023-03-16T21:37:23;9.52;;;3.90;;
61373;SDS011;47242;48.158;-1.586;2023-03-16T21:39:49;7.20;;;3.85;;
61373;SDS011;47242;48.158;-1.586;2023-03-16T21:42:16;6.63;;;3.10;;
61373;SDS011;47242;48.158;-1.586;2023-03-16T21:44:42;8.13;;;3.78;;